createdAt,value
2022-08-11T00:01:05.733Z,18.95
2022-08-11T00:03:43.252Z,18.89
2022-08-11T00:06:11.519Z,18.82
2022-08-11T00:08:38.676Z,18.75
2022-08-11T00:11:08.376Z,18.73
2022-08-11T00:13:40.480Z,18.66
2022-08-11T00:16:19.074Z,18.66
2022-08-11T00:18:48.789Z,18.57
2022-08-11T00:21:16.429Z,18.48
2022-08-11T00:23:45.562Z,18.46
2022-08-11T00:26:14.140Z,18.45
2022-08-11T00:28:41.852Z,18.37
2022-08-11T00:31:11.352Z,18.35
2022-08-11T00:33:45.461Z,18.33
2022-08-11T00:36:16.244Z,18.35
2022-08-11T00:38:45.399Z,18.34
2022-08-11T00:41:30.300Z,18.32
2022-08-11T00:44:13.064Z,18.27
2022-08-11T00:46:57.397Z,18.17
2022-08-11T00:50:00.737Z,18.16
2022-08-11T00:52:44.480Z,18.13
2022-08-11T00:55:55.551Z,18.07
2022-08-11T00:59:34.344Z,18.02
2022-08-11T01:02:30.724Z,17.97
2022-08-11T01:05:15.845Z,17.93
2022-08-11T01:08:03.479Z,17.86
2022-08-11T01:10:54.554Z,17.79
2022-08-11T01:13:54.683Z,17.73
2022-08-11T01:16:39.805Z,17.69
2022-08-11T01:20:04.181Z,17.66
2022-08-11T01:23:26.354Z,17.56
2022-08-11T01:26:13.043Z,17.50
2022-08-11T01:29:06.122Z,17.48
2022-08-11T01:32:02.272Z,17.47
2022-08-11T01:35:12.608Z,17.43
2022-08-11T01:38:23.227Z,17.40
2022-08-11T01:41:01.977Z,17.34
2022-08-11T01:44:12.859Z,17.34
2022-08-11T01:46:47.396Z,17.35
2022-08-11T01:50:07.141Z,17.36
2022-08-11T01:52:30.123Z,17.34
2022-08-11T01:55:34.029Z,17.32
2022-08-11T01:58:43.712Z,17.27
2022-08-11T02:01:37.990Z,17.20
2022-08-11T02:04:29.632Z,17.17
2022-08-11T02:07:34.103Z,17.13
2022-08-11T02:10:38.801Z,17.14
2022-08-11T02:13:10.369Z,17.11
2022-08-11T02:15:55.904Z,17.07
2022-08-11T02:19:10.619Z,17.04
2022-08-11T02:22:05.381Z,17.00
2022-08-11T02:24:44.663Z,16.97
2022-08-11T02:27:23.827Z,17.01
2022-08-11T02:30:06.255Z,16.98
2022-08-11T02:33:14.155Z,16.94
2022-08-11T02:35:50.198Z,16.91
2022-08-11T02:38:25.288Z,16.88
2022-08-11T02:41:43.457Z,16.85
2022-08-11T02:44:16.800Z,16.85
2022-08-11T02:47:14.443Z,16.83
2022-08-11T02:50:07.457Z,16.82
2022-08-11T02:52:40.950Z,16.79
2022-08-11T02:55:56.545Z,16.80
2022-08-11T02:58:26.850Z,16.79
2022-08-11T03:01:11.342Z,16.79
2022-08-11T03:03:51.194Z,16.75
2022-08-11T03:06:23.352Z,16.72
2022-08-11T03:08:52.464Z,16.62
2022-08-11T03:11:57.627Z,16.57
2022-08-11T03:15:14.925Z,16.53
2022-08-11T03:18:03.025Z,16.54
2022-08-11T03:20:53.972Z,16.52
2022-08-11T03:23:39.552Z,16.46
2022-08-11T03:26:15.626Z,16.44
2022-08-11T03:29:24.943Z,16.39
2022-08-11T03:32:07.366Z,16.35
2022-08-11T03:34:38.961Z,16.31
2022-08-11T03:37:38.887Z,16.26
2022-08-11T03:40:41.497Z,16.22
2022-08-11T03:43:26.345Z,16.21
2022-08-11T03:46:17.746Z,16.16
2022-08-11T03:49:32.866Z,16.08
2022-08-11T03:52:17.854Z,16.04
2022-08-11T03:55:01.657Z,16.03
2022-08-11T03:58:10.074Z,16.01
2022-08-11T04:01:07.665Z,15.98
2022-08-11T04:03:56.473Z,15.94
2022-08-11T04:06:42.778Z,15.91
2022-08-11T04:09:35.655Z,15.90
2022-08-11T04:12:35.448Z,15.86
2022-08-11T04:15:21.306Z,15.87
2022-08-11T04:18:06.332Z,15.86
2022-08-11T04:21:06.526Z,15.83
2022-08-11T04:24:34.443Z,15.76
2022-08-11T04:27:37.302Z,15.67
2022-08-11T04:30:22.419Z,15.67
2022-08-11T04:32:59.283Z,15.68
2022-08-11T04:35:51.192Z,15.64
2022-08-11T04:38:58.597Z,15.63
2022-08-11T04:42:17.016Z,15.64
2022-08-11T04:45:11.883Z,15.69
2022-08-11T04:48:23.907Z,15.68
2022-08-11T04:51:27.251Z,15.69
2022-08-11T04:54:57.348Z,15.67
2022-08-11T04:57:59.782Z,15.70
2022-08-11T05:00:51.616Z,15.72
2022-08-11T05:03:53.632Z,15.77
2022-08-11T05:06:57.123Z,15.78
2022-08-11T05:09:55.256Z,15.83
2022-08-11T05:12:48.433Z,15.87
2022-08-11T05:15:42.327Z,15.89
2022-08-11T05:18:39.349Z,15.90
2022-08-11T05:21:44.437Z,15.94
2022-08-11T05:24:38.623Z,16.01
2022-08-11T05:27:27.844Z,16.06
2022-08-11T05:30:21.238Z,16.14
2022-08-11T05:33:16.710Z,17.18
2022-08-11T05:36:00.519Z,20.00
2022-08-11T05:38:50.734Z,22.10
2022-08-11T05:41:38.761Z,23.57
2022-08-11T05:44:25.146Z,24.52
2022-08-11T05:47:10.482Z,25.10
2022-08-11T05:49:58.075Z,25.76
2022-08-11T05:52:47.046Z,26.42
2022-08-11T05:55:34.866Z,26.67
2022-08-11T05:58:04.102Z,27.11
2022-08-11T06:00:32.012Z,27.36
2022-08-11T06:03:01.305Z,27.65
2022-08-11T06:05:37.308Z,27.79
2022-08-11T06:08:12.320Z,28.06
2022-08-11T06:10:42.964Z,28.11
2022-08-11T06:13:10.461Z,28.13
2022-08-11T06:15:51.912Z,28.28
2022-08-11T06:18:19.660Z,28.20
2022-08-11T06:20:50.645Z,28.19
2022-08-11T06:23:23.018Z,27.90
2022-08-11T06:25:52.224Z,27.65
2022-08-11T06:28:21.219Z,26.87
2022-08-11T06:30:48.977Z,25.65
2022-08-11T06:33:21.362Z,24.56
2022-08-11T06:36:06.693Z,23.84
2022-08-11T06:39:18.517Z,23.34
2022-08-11T06:41:59.025Z,23.08
2022-08-11T06:44:39.918Z,22.87
2022-08-11T06:47:15.952Z,22.68
2022-08-11T06:50:06.254Z,22.59
2022-08-11T06:52:36.457Z,22.54
2022-08-11T06:55:55.550Z,22.59
2022-08-11T06:58:16.347Z,22.57
2022-08-11T07:00:44.989Z,22.63
2022-08-11T07:03:13.244Z,22.68
2022-08-11T07:05:45.805Z,22.71
2022-08-11T07:08:49.496Z,22.76
2022-08-11T07:12:08.601Z,22.90
2022-08-11T07:15:00.526Z,23.01
2022-08-11T07:17:30.116Z,23.05
2022-08-11T07:20:18.528Z,23.09
2022-08-11T07:23:11.879Z,23.21
2022-08-11T07:26:00.187Z,23.32
2022-08-11T07:28:46.888Z,23.37
2022-08-11T07:31:29.177Z,23.52
2022-08-11T07:34:17.936Z,23.65
2022-08-11T07:36:52.384Z,23.78
2022-08-11T07:39:25.700Z,23.93
2022-08-11T07:41:54.622Z,24.05
2022-08-11T07:44:22.448Z,24.21
2022-08-11T07:47:09.811Z,24.39
2022-08-11T07:49:57.103Z,24.41
2022-08-11T07:52:32.092Z,24.50
2022-08-11T07:55:05.061Z,24.74
2022-08-11T07:58:15.017Z,24.87
2022-08-11T08:01:10.415Z,25.03
2022-08-11T08:04:02.840Z,25.20
2022-08-11T08:06:51.032Z,25.30
2022-08-11T08:09:38.278Z,25.39
2022-08-11T08:12:24.229Z,25.37
2022-08-11T08:15:11.600Z,25.59
2022-08-11T08:18:20.360Z,25.76
2022-08-11T08:20:52.376Z,25.96
2022-08-11T08:23:33.259Z,26.15
2022-08-11T08:26:04.361Z,26.36
2022-08-11T08:28:32.897Z,26.37
2022-08-11T08:31:01.004Z,26.47
2022-08-11T08:33:31.941Z,26.76
2022-08-11T08:36:15.146Z,26.78
2022-08-11T08:38:47.156Z,26.98
2022-08-11T08:41:17.364Z,27.08
2022-08-11T08:43:49.621Z,27.31
2022-08-11T08:46:20.679Z,27.68
2022-08-11T08:48:49.254Z,27.94
2022-08-11T08:52:01.247Z,28.18
2022-08-11T08:54:29.002Z,28.51
2022-08-11T08:56:56.721Z,28.66
2022-08-11T08:59:26.936Z,28.62
2022-08-11T09:02:13.619Z,28.59
2022-08-11T09:04:41.175Z,28.86
2022-08-11T09:07:12.458Z,28.97
2022-08-11T09:09:48.113Z,29.01
2022-08-11T09:12:16.890Z,29.29
2022-08-11T09:15:05.412Z,29.63
2022-08-11T09:17:40.659Z,29.72
2022-08-11T09:20:11.382Z,29.99
2022-08-11T09:26:11.015Z,30.45
2022-08-11T09:28:37.971Z,30.63
2022-08-11T09:31:06.213Z,30.92
2022-08-11T09:33:33.176Z,31.00
2022-08-11T09:36:20.912Z,31.10
2022-08-11T09:39:06.615Z,31.22
2022-08-11T09:42:00.853Z,31.23
2022-08-11T09:44:39.251Z,31.25
2022-08-11T09:47:14.999Z,31.51
2022-08-11T09:49:44.435Z,31.65
2022-08-11T09:52:14.205Z,31.76
2022-08-11T09:54:42.666Z,31.73
2022-08-11T09:57:33.806Z,31.75
2022-08-11T10:00:12.657Z,32.04
2022-08-11T10:02:44.443Z,32.24
2022-08-11T10:05:32.904Z,32.31
2022-08-11T10:08:01.316Z,32.46
2022-08-11T10:10:29.103Z,32.67
2022-08-11T10:13:02.764Z,32.96
2022-08-11T10:15:39.875Z,32.83
2022-08-11T10:18:52.622Z,33.00
2022-08-11T10:21:25.069Z,33.16
2022-08-11T10:24:11.909Z,32.99
2022-08-11T10:27:00.625Z,33.04
2022-08-11T10:29:55.155Z,33.44
2022-08-11T10:32:58.066Z,33.71
2022-08-11T10:35:27.212Z,33.50
2022-08-11T10:38:06.732Z,33.29
2022-08-11T10:40:38.930Z,33.34
2022-08-11T10:43:10.249Z,33.68
2022-08-11T10:45:57.455Z,33.91
2022-08-11T10:48:28.772Z,33.70
2022-08-11T10:51:14.517Z,33.65
2022-08-11T10:54:03.545Z,34.01
2022-08-11T10:56:51.849Z,34.01
2022-08-11T10:59:18.610Z,34.40
2022-08-11T11:01:46.056Z,34.69
2022-08-11T11:04:16.149Z,34.85
2022-08-11T11:06:48.487Z,34.98
2022-08-11T11:09:32.165Z,34.96
2022-08-11T11:12:29.008Z,35.06
2022-08-11T11:15:20.712Z,35.09
2022-08-11T11:17:57.372Z,35.12
2022-08-11T11:20:36.241Z,35.15
2022-08-11T11:23:10.074Z,35.23
2022-08-11T11:26:10.526Z,35.47
2022-08-11T11:29:30.361Z,35.50
2022-08-11T11:32:04.309Z,35.62
2022-08-11T11:35:08.901Z,35.63
2022-08-11T11:37:36.784Z,35.24
2022-08-11T11:40:13.042Z,35.43
2022-08-11T11:42:41.449Z,35.65
2022-08-11T11:45:10.041Z,35.80
2022-08-11T11:47:53.926Z,35.90
2022-08-11T11:50:32.660Z,35.65
2022-08-11T11:53:01.501Z,35.57
2022-08-11T11:55:29.701Z,35.65
2022-08-11T11:58:18.756Z,35.88
2022-08-11T12:01:05.107Z,35.77
2022-08-11T12:03:33.286Z,36.03
2022-08-11T12:06:00.880Z,36.31
2022-08-11T12:08:28.855Z,36.59
2022-08-11T12:11:18.067Z,36.49
2022-08-11T12:13:50.337Z,36.55
2022-08-11T12:16:33.722Z,36.98
2022-08-11T12:19:02.875Z,36.77
2022-08-11T12:21:30.095Z,36.62
2022-08-11T12:24:17.726Z,36.38
2022-08-11T12:27:15.172Z,36.79
2022-08-11T12:29:35.222Z,37.59
2022-08-11T12:32:02.312Z,37.83
2022-08-11T12:34:31.131Z,37.42
2022-08-11T12:36:59.660Z,37.38
2022-08-11T12:40:16.573Z,37.22
2022-08-11T12:42:56.506Z,37.18
2022-08-11T12:45:27.649Z,37.48
2022-08-11T12:48:59.192Z,37.68
2022-08-11T12:51:29.964Z,37.40
2022-08-11T12:54:25.570Z,37.35
2022-08-11T12:57:24.032Z,37.55
2022-08-11T13:00:24.705Z,37.44
2022-08-11T13:03:10.990Z,37.77
2022-08-11T13:05:44.559Z,37.95
2022-08-11T13:08:14.906Z,37.82
2022-08-11T13:11:01.014Z,37.82
2022-08-11T13:13:54.989Z,38.03
2022-08-11T13:16:15.147Z,38.19
2022-08-11T13:18:42.889Z,38.20
2022-08-11T13:21:20.603Z,38.00
2022-08-11T13:24:00.734Z,37.85
2022-08-11T13:26:43.423Z,38.12
2022-08-11T13:29:17.232Z,38.08
2022-08-11T13:31:44.749Z,38.52
2022-08-11T13:34:11.638Z,38.56
2022-08-11T13:36:38.644Z,38.61
2022-08-11T13:39:05.590Z,38.74
2022-08-11T13:41:39.113Z,38.88
2022-08-11T13:44:07.935Z,39.07
2022-08-11T13:46:35.182Z,39.12
2022-08-11T13:49:02.278Z,38.99
2022-08-11T13:51:35.419Z,39.12
2022-08-11T13:54:10.870Z,38.98
2022-08-11T13:56:39.769Z,39.25
2022-08-11T13:59:11.091Z,39.54
2022-08-11T14:02:19.794Z,39.51
2022-08-11T14:04:49.189Z,39.17
2022-08-11T14:07:20.206Z,38.81
2022-08-11T14:09:47.762Z,39.04
2022-08-11T14:12:47.877Z,38.86
2022-08-11T14:15:35.175Z,38.71
2022-08-11T14:18:06.433Z,38.92
2022-08-11T14:20:56.025Z,38.80
2022-08-11T14:23:28.739Z,38.78
2022-08-11T14:26:14.633Z,38.92
2022-08-11T14:28:44.937Z,39.00
2022-08-11T14:31:15.010Z,39.01
2022-08-11T14:33:58.411Z,38.92
2022-08-11T14:36:28.551Z,39.09
2022-08-11T14:38:55.817Z,39.18
2022-08-11T14:42:07.624Z,39.09
2022-08-11T14:44:49.973Z,39.21
2022-08-11T14:47:24.548Z,39.29
2022-08-11T14:50:04.885Z,39.20
2022-08-11T14:52:37.656Z,38.93
2022-08-11T14:55:23.537Z,38.91
2022-08-11T14:58:04.663Z,38.96
2022-08-11T15:00:34.086Z,38.90
2022-08-11T15:03:12.583Z,39.11
2022-08-11T15:05:57.497Z,39.17
2022-08-11T15:08:46.247Z,39.25
2022-08-11T15:11:34.091Z,39.05
2022-08-11T15:14:03.284Z,39.20
2022-08-11T15:16:48.657Z,39.26
2022-08-11T15:19:16.705Z,39.12
2022-08-11T15:22:01.876Z,39.13
2022-08-11T15:24:30.883Z,39.24
2022-08-11T15:27:19.118Z,39.02
2022-08-11T15:30:06.495Z,38.57
2022-08-11T15:32:58.215Z,38.39
2022-08-11T15:35:47.690Z,38.36
2022-08-11T15:38:16.070Z,38.50
2022-08-11T15:41:02.031Z,38.63
2022-08-11T15:43:51.804Z,38.36
2022-08-11T15:46:23.078Z,38.42
2022-08-11T15:48:59.660Z,38.28
2022-08-11T15:51:45.693Z,38.14
2022-08-11T15:54:17.324Z,38.10
2022-08-11T15:56:48.008Z,38.08
2022-08-11T15:59:43.270Z,38.09
2022-08-11T16:02:33.929Z,38.20
2022-08-11T16:05:06.025Z,38.15
2022-08-11T16:07:40.472Z,37.91
2022-08-11T16:10:17.935Z,37.61
2022-08-11T16:13:06.286Z,37.57
2022-08-11T16:15:55.638Z,37.50
2022-08-11T16:18:40.582Z,37.28
2022-08-11T16:21:26.177Z,37.10
2022-08-11T16:24:06.415Z,37.20
2022-08-11T16:27:07.803Z,36.93
2022-08-11T16:29:25.064Z,36.78
2022-08-11T16:32:14.433Z,36.69
2022-08-11T16:35:01.184Z,36.71
2022-08-11T16:37:48.570Z,36.55
2022-08-11T16:40:16.070Z,36.40
2022-08-11T16:43:10.287Z,36.28
2022-08-11T16:45:58.606Z,36.18
2022-08-11T16:48:36.244Z,36.09
2022-08-11T16:51:03.959Z,35.86
2022-08-11T16:54:00.349Z,35.26
2022-08-11T16:56:25.103Z,34.53
2022-08-11T16:59:13.398Z,34.22
2022-08-11T17:01:41.892Z,34.17
2022-08-11T17:04:34.436Z,34.46
2022-08-11T17:07:40.536Z,34.54
2022-08-11T17:10:31.892Z,34.93
2022-08-11T17:13:17.784Z,35.13
2022-08-11T17:16:08.947Z,35.32
2022-08-11T17:18:44.593Z,35.32
2022-08-11T17:21:26.165Z,35.62
2022-08-11T17:24:08.723Z,35.32
2022-08-11T17:26:58.337Z,35.07
2022-08-11T17:29:27.090Z,34.88
2022-08-11T17:32:13.728Z,35.01
2022-08-11T17:35:01.500Z,35.25
2022-08-11T17:37:33.018Z,35.08
2022-08-11T17:40:01.511Z,35.12
2022-08-11T17:42:49.604Z,35.19
2022-08-11T17:45:37.307Z,34.97
2022-08-11T17:48:24.311Z,34.90
2022-08-11T17:50:53.459Z,34.87
2022-08-11T17:53:39.127Z,34.98
2022-08-11T17:56:25.435Z,34.95
2022-08-11T17:59:32.212Z,34.98
2022-08-11T18:02:21.509Z,34.46
2022-08-11T18:05:01.663Z,34.23
2022-08-11T18:07:46.673Z,33.91
2022-08-11T18:10:33.786Z,33.64
2022-08-11T18:13:23.391Z,33.01
2022-08-11T18:16:09.160Z,32.58
2022-08-11T18:18:54.489Z,32.12
2022-08-11T18:21:39.767Z,31.76
2022-08-11T18:24:30.501Z,31.33
2022-08-11T18:27:21.782Z,31.13
2022-08-11T18:30:10.147Z,30.90
2022-08-11T18:33:25.107Z,30.67
2022-08-11T18:36:06.401Z,30.49
2022-08-11T18:38:51.773Z,30.31
2022-08-11T18:41:37.529Z,30.12
2022-08-11T18:44:25.762Z,29.99
2022-08-11T18:47:13.753Z,29.80
2022-08-11T18:50:05.479Z,29.63
2022-08-11T18:52:53.772Z,29.54
2022-08-11T18:55:39.083Z,29.39
2022-08-11T18:58:28.830Z,29.16
2022-08-11T19:01:16.892Z,28.99
2022-08-11T19:04:11.283Z,28.80
2022-08-11T19:06:58.259Z,28.67
2022-08-11T19:09:45.430Z,28.48
2022-08-11T19:12:32.321Z,28.36
2022-08-11T19:15:19.605Z,28.24
2022-08-11T19:18:05.889Z,28.10
2022-08-11T19:20:55.212Z,27.97
2022-08-11T19:23:48.141Z,27.82
2022-08-11T19:26:34.369Z,27.68
2022-08-11T19:30:11.100Z,27.52
2022-08-11T19:32:30.431Z,27.36
2022-08-11T19:35:15.643Z,27.20
2022-08-11T19:38:03.966Z,27.04
2022-08-11T19:40:50.408Z,26.90
2022-08-11T19:43:37.027Z,26.80
2022-08-11T19:46:24.532Z,26.65
2022-08-11T19:49:12.366Z,26.49
2022-08-11T19:51:58.215Z,26.38
2022-08-11T19:54:51.385Z,26.24
2022-08-11T19:57:40.176Z,26.12
2022-08-11T20:00:30.613Z,25.99
2022-08-11T20:03:17.254Z,25.86
2022-08-11T20:06:04.032Z,25.75
2022-08-11T20:08:50.973Z,25.61
2022-08-11T20:11:37.933Z,25.49
2022-08-11T20:14:25.219Z,25.38
2022-08-11T20:17:12.961Z,25.26
2022-08-11T20:22:48.413Z,25.00
2022-08-11T20:25:36.437Z,24.87
2022-08-11T20:28:24.645Z,24.76
2022-08-11T20:31:12.555Z,24.66
2022-08-11T20:33:59.511Z,24.62
2022-08-11T20:36:52.508Z,24.54
2022-08-11T20:39:40.168Z,24.49
2022-08-11T20:42:29.863Z,24.45
2022-08-11T20:45:18.792Z,24.43
2022-08-11T20:48:10.648Z,24.32
2022-08-11T20:51:06.460Z,24.23
2022-08-11T20:53:58.078Z,24.13
2022-08-11T20:56:46.412Z,24.07
2022-08-11T20:59:49.326Z,24.00
2022-08-11T21:02:41.065Z,23.97
2022-08-11T21:06:05.504Z,23.86
2022-08-11T21:08:36.662Z,23.76
2022-08-11T21:11:27.480Z,23.68
2022-08-11T21:14:14.763Z,23.60
2022-08-11T21:17:25.971Z,23.52
2022-08-11T21:20:17.003Z,23.40
2022-08-11T21:23:23.745Z,23.35
2022-08-11T21:26:15.557Z,23.29
2022-08-11T21:29:01.249Z,23.21
2022-08-11T21:31:50.154Z,23.17
2022-08-11T21:34:38.419Z,23.07
2022-08-11T21:37:26.642Z,23.02
2022-08-11T21:40:17.126Z,22.98
2022-08-11T21:43:05.542Z,22.93
2022-08-11T21:45:54.032Z,22.85
2022-08-11T21:48:41.301Z,22.80
2022-08-11T21:51:26.168Z,22.72
2022-08-11T21:54:12.083Z,22.68
2022-08-11T21:56:58.378Z,22.62
2022-08-11T21:59:56.963Z,22.51
2022-08-11T22:02:43.643Z,22.47
2022-08-11T22:05:35.954Z,22.39
2022-08-11T22:08:21.780Z,22.37
2022-08-11T22:11:07.329Z,22.28
2022-08-11T22:14:01.251Z,22.20
2022-08-11T22:16:51.581Z,22.16
2022-08-11T22:19:37.881Z,22.10
2022-08-11T22:22:25.645Z,22.05
2022-08-11T22:25:16.612Z,22.00
2022-08-11T22:28:04.204Z,21.95
2022-08-11T22:30:49.400Z,21.87
2022-08-11T22:33:35.951Z,21.83
2022-08-11T22:36:26.207Z,21.78
2022-08-11T22:39:12.053Z,21.73
2022-08-11T22:41:56.892Z,21.68
2022-08-11T22:44:42.244Z,21.64
2022-08-11T22:47:38.433Z,21.62
2022-08-11T22:50:27.075Z,21.57
2022-08-11T22:53:12.752Z,21.53
2022-08-11T22:55:59.152Z,21.48
2022-08-11T22:58:45.548Z,21.44
2022-08-11T23:01:35.337Z,21.40
2022-08-11T23:04:21.638Z,21.39
2022-08-11T23:07:08.563Z,21.34
2022-08-11T23:09:54.402Z,21.29
2022-08-11T23:12:39.950Z,21.21
2022-08-11T23:15:25.706Z,21.19
2022-08-11T23:18:11.045Z,21.13
2022-08-11T23:20:58.430Z,21.04
2022-08-11T23:23:47.003Z,21.02
2022-08-11T23:26:34.387Z,21.00
2022-08-11T23:29:21.195Z,20.97
2022-08-11T23:32:10.181Z,20.88
2022-08-11T23:35:04.702Z,20.84
2022-08-11T23:38:03.897Z,20.76
2022-08-11T23:40:48.669Z,20.72
2022-08-11T23:43:41.146Z,20.62
2022-08-11T23:46:25.956Z,20.55
2022-08-11T23:49:20.069Z,20.47
2022-08-11T23:52:06.704Z,20.44
2022-08-11T23:54:53.921Z,20.38
2022-08-11T23:57:47.906Z,20.36
